Center Sandwich, New Hampshire
Current Conditions -  °F | °C
As of 5:55 AM on Friday 24 Oct 2014 (Local Time) from K1P1 Reporting Station
Overcast Overcast  
Wind Chill: 44°   Ceiling: 4300
Heat Index: 46°   Visibility: 10mi
Dew Point: 46°   Wind: 5mph
Humidity: 100%   Direction: 280°W
Pressure: 29.72"   Gusts: NA
Location:  43.81°N, 71.44°W
Report Text: K1P1 240955Z AUTO 28004KT 10SM SCT035 BKN043 OVC048 08/08 A2972 RMK AO2 T00800080
Loading
Personal Weather Stations






























Interactive Weather Map
Tropical Storm Tracking
New forecast layout! Learn more

10-Day Weather Forecast

Advertisements
Track Severe Weather on mobile